createdAt,value
2019-05-01T00:00:23.972Z,15.33
2019-05-01T00:03:17.926Z,16.87
2019-05-01T00:05:50.660Z,13.87
2019-05-01T00:08:19.629Z,14.90
2019-05-01T00:10:48.413Z,16.27
2019-05-01T00:13:17.636Z,15.27
2019-05-01T00:15:47.371Z,14.83
2019-05-01T00:18:16.338Z,13.63
2019-05-01T00:20:45.234Z,14.17
2019-05-01T00:23:14.200Z,17.03
2019-05-01T00:25:43.281Z,17.07
2019-05-01T00:28:12.365Z,13.77
2019-05-01T00:30:41.805Z,15.10
2019-05-01T00:33:10.757Z,14.33
2019-05-01T00:35:39.672Z,16.17
2019-05-01T00:38:08.725Z,15.07
2019-05-01T00:40:37.627Z,16.87
2019-05-01T00:43:06.603Z,14.77
2019-05-01T00:45:35.597Z,16.00
2019-05-01T00:48:04.675Z,21.00
2019-05-01T00:50:33.665Z,15.47
2019-05-01T00:53:02.702Z,17.30
2019-05-01T00:55:53.756Z,24.10
2019-05-01T00:58:36.357Z,18.63
2019-05-01T01:01:26.600Z,21.70
2019-05-01T01:03:55.488Z,19.50
2019-05-01T01:06:24.480Z,18.40
2019-05-01T01:08:53.358Z,26.13
2019-05-01T01:11:22.231Z,20.97
2019-05-01T01:13:51.285Z,22.43
2019-05-01T01:16:20.094Z,17.87
2019-05-01T01:18:48.967Z,19.20
2019-05-01T01:21:18.048Z,20.83
2019-05-01T01:23:47.255Z,22.20
2019-05-01T01:26:16.278Z,19.23
2019-05-01T01:28:45.234Z,15.67
2019-05-01T01:31:14.231Z,18.00
2019-05-01T01:33:43.168Z,17.20
2019-05-01T01:36:12.165Z,17.63
2019-05-01T01:38:41.149Z,24.17
2019-05-01T01:41:10.351Z,20.43
2019-05-01T01:43:56.284Z,15.67
2019-05-01T01:46:27.267Z,18.77
2019-05-01T01:48:56.538Z,15.77
2019-05-01T01:51:25.870Z,16.17
2019-05-01T01:53:55.571Z,17.07
2019-05-01T01:56:24.571Z,23.10
2019-05-01T01:58:54.048Z,19.50
2019-05-01T02:01:39.492Z,18.10
2019-05-01T02:04:24.783Z,18.63
2019-05-01T02:06:53.732Z,24.33
2019-05-01T02:09:22.715Z,21.07
2019-05-01T02:11:51.760Z,19.00
2019-05-01T02:14:20.650Z,15.50
2019-05-01T02:16:49.663Z,21.97
2019-05-01T02:19:18.623Z,19.03
2019-05-01T02:21:47.651Z,17.53
2019-05-01T02:24:16.656Z,19.40
2019-05-01T02:26:48.494Z,19.03
2019-05-01T02:29:32.438Z,17.27
2019-05-01T02:32:01.891Z,20.23
2019-05-01T02:34:31.490Z,15.77
2019-05-01T02:37:03.577Z,20.53
2019-05-01T02:39:34.809Z,18.70
2019-05-01T02:42:04.196Z,16.83
2019-05-01T02:44:39.938Z,18.50
2019-05-01T02:47:12.135Z,15.53
2019-05-01T02:49:54.810Z,15.30
2019-05-01T02:52:28.538Z,15.33
2019-05-01T02:55:01.229Z,17.73
2019-05-01T02:57:31.663Z,23.37
2019-05-01T03:00:00.886Z,16.03
2019-05-01T03:02:30.562Z,16.97
2019-05-01T03:05:00.344Z,19.12
2019-05-01T03:07:33.847Z,16.67
2019-05-01T03:10:08.973Z,19.30
2019-05-01T03:12:39.020Z,22.20
2019-05-01T03:15:09.050Z,18.60
2019-05-01T03:18:17.465Z,20.20
2019-05-01T03:21:00.702Z,18.63
2019-05-01T03:23:37.749Z,19.53
2019-05-01T03:26:06.845Z,19.73
2019-05-01T03:28:36.016Z,19.17
2019-05-01T03:31:05.690Z,28.43
2019-05-01T03:33:34.984Z,17.03
2019-05-01T03:36:04.945Z,20.87
2019-05-01T03:38:34.669Z,19.50
2019-05-01T03:41:03.934Z,19.57
2019-05-01T03:43:33.840Z,18.47
2019-05-01T03:46:03.215Z,25.20
2019-05-01T03:48:33.958Z,20.00
2019-05-01T03:51:03.486Z,26.90
2019-05-01T03:53:32.669Z,20.77
2019-05-01T03:56:01.939Z,22.85
2019-05-01T03:58:31.590Z,20.70
2019-05-01T04:01:13.105Z,19.50
2019-05-01T04:03:46.184Z,24.10
2019-05-01T04:06:15.558Z,17.03
2019-05-01T04:08:45.077Z,18.63
2019-05-01T04:11:14.376Z,19.23
2019-05-01T04:13:43.496Z,18.57
2019-05-01T04:16:13.206Z,18.20
2019-05-01T04:18:44.391Z,17.40
2019-05-01T04:21:14.798Z,17.40
2019-05-01T04:23:43.892Z,19.50
2019-05-01T04:26:13.822Z,20.67
2019-05-01T04:29:01.996Z,21.87
2019-05-01T04:31:45.115Z,20.60
2019-05-01T04:34:22.916Z,21.90
2019-05-01T04:36:54.630Z,24.43
2019-05-01T04:39:23.679Z,21.43
2019-05-01T04:41:53.532Z,22.80
2019-05-01T04:44:22.792Z,22.03
2019-05-01T04:46:53.544Z,27.93
2019-05-01T04:49:22.655Z,24.17
2019-05-01T04:51:51.793Z,25.47
2019-05-01T04:54:21.379Z,21.57
2019-05-01T04:56:50.597Z,22.87
2019-05-01T04:59:19.810Z,23.23
2019-05-01T05:01:58.112Z,24.53
2019-05-01T05:04:27.639Z,27.13
2019-05-01T05:06:56.867Z,25.33
2019-05-01T05:09:46.650Z,30.00
2019-05-01T05:12:23.447Z,23.87
2019-05-01T05:14:56.725Z,22.70
2019-05-01T05:17:26.661Z,27.90
2019-05-01T05:19:56.220Z,24.82
2019-05-01T05:22:25.751Z,32.63
2019-05-01T05:24:55.449Z,30.30
2019-05-01T05:27:25.241Z,29.17
2019-05-01T05:29:57.344Z,23.83
2019-05-01T05:32:28.561Z,24.47
2019-05-01T05:34:59.382Z,27.77
2019-05-01T05:37:36.453Z,26.30
2019-05-01T05:40:05.971Z,24.03
2019-05-01T05:42:35.251Z,26.03
2019-05-01T05:45:04.761Z,26.97
2019-05-01T05:47:33.972Z,29.67
2019-05-01T05:50:03.368Z,32.30
2019-05-01T05:52:47.009Z,30.23
2019-05-01T05:55:44.146Z,33.70
2019-05-01T05:58:22.148Z,36.00
2019-05-01T06:01:30.417Z,30.20
2019-05-01T06:04:19.400Z,27.67
2019-05-01T06:07:08.197Z,29.57
2019-05-01T06:09:48.549Z,26.57
2019-05-01T06:12:25.126Z,25.40
2019-05-01T06:15:08.173Z,28.70
2019-05-01T06:17:42.184Z,34.57
2019-05-01T06:20:37.480Z,39.30
2019-05-01T06:23:37.709Z,33.33
2019-05-01T06:26:24.969Z,26.97
2019-05-01T06:28:55.863Z,31.33
2019-05-01T06:31:25.841Z,29.20
2019-05-01T06:33:55.656Z,30.40
2019-05-01T06:36:24.606Z,31.67
2019-05-01T06:38:54.377Z,27.93
2019-05-01T06:41:28.807Z,29.60
2019-05-01T06:44:02.100Z,26.03
2019-05-01T06:47:06.229Z,32.17
2019-05-01T06:50:12.282Z,33.97
2019-05-01T06:52:41.785Z,25.97
2019-05-01T06:55:10.855Z,28.20
2019-05-01T06:57:43.809Z,29.13
2019-05-01T07:00:18.108Z,28.77
2019-05-01T07:02:49.100Z,29.67
2019-05-01T07:05:20.082Z,25.87
2019-05-01T07:07:53.277Z,32.93
2019-05-01T07:10:30.593Z,22.23
2019-05-01T07:12:51.660Z,27.67
2019-05-01T07:15:21.892Z,21.17
2019-05-01T07:17:51.483Z,22.87
2019-05-01T07:20:54.711Z,21.83
2019-05-01T07:23:24.111Z,20.50
2019-05-01T07:25:53.203Z,21.07
2019-05-01T07:28:23.062Z,21.17
2019-05-01T07:30:58.835Z,22.53
2019-05-01T07:33:28.044Z,20.83
2019-05-01T07:35:57.242Z,22.30
2019-05-01T07:38:26.246Z,22.83
2019-05-01T07:40:58.789Z,22.73
2019-05-01T07:43:42.343Z,20.60
2019-05-01T07:46:18.451Z,22.83
2019-05-01T07:48:48.877Z,22.13
2019-05-01T07:51:17.822Z,22.65
2019-05-01T07:53:46.957Z,21.20
2019-05-01T07:56:17.256Z,22.13
2019-05-01T07:58:47.443Z,23.37
2019-05-01T08:01:54.360Z,23.00
2019-05-01T08:04:35.909Z,27.13
2019-05-01T08:06:57.126Z,22.80
2019-05-01T08:09:23.999Z,25.23
2019-05-01T08:11:52.935Z,23.50
2019-05-01T08:14:21.954Z,23.67
2019-05-01T08:16:50.978Z,22.63
2019-05-01T08:19:28.058Z,25.67
2019-05-01T08:22:05.254Z,23.50
2019-05-01T08:24:34.428Z,27.20
2019-05-01T08:27:03.361Z,24.50
2019-05-01T08:29:54.579Z,27.27
2019-05-01T08:32:41.370Z,27.30
2019-05-01T08:35:12.532Z,29.13
2019-05-01T08:37:41.493Z,27.23
2019-05-01T08:40:10.972Z,33.40
2019-05-01T08:42:42.672Z,29.23
2019-05-01T08:45:48.136Z,30.30
2019-05-01T08:48:30.733Z,28.67
2019-05-01T08:51:00.516Z,24.67
2019-05-01T08:53:29.461Z,32.60
2019-05-01T08:55:58.481Z,27.53
2019-05-01T08:58:27.399Z,30.70
2019-05-01T09:00:56.397Z,28.67
2019-05-01T09:03:25.256Z,28.77
2019-05-01T09:05:57.559Z,27.13
2019-05-01T09:08:27.087Z,29.23
2019-05-01T09:11:00.271Z,30.30
2019-05-01T09:13:26.796Z,28.77
2019-05-01T09:15:55.799Z,28.13
2019-05-01T09:18:24.950Z,27.07
2019-05-01T09:20:56.232Z,23.47
2019-05-01T09:23:25.253Z,24.27
2019-05-01T09:26:06.768Z,25.13
2019-05-01T09:28:39.794Z,27.27
2019-05-01T09:31:08.901Z,28.47
2019-05-01T09:33:37.847Z,28.77
2019-05-01T09:36:07.140Z,23.77
2019-05-01T09:38:36.097Z,24.83
2019-05-01T09:41:05.589Z,24.97
2019-05-01T09:43:35.628Z,27.87
2019-05-01T09:46:05.594Z,24.50
2019-05-01T09:48:34.503Z,24.67
2019-05-01T09:51:25.921Z,21.47
2019-05-01T09:54:05.633Z,23.73
2019-05-01T09:56:32.935Z,25.77
2019-05-01T09:59:01.976Z,27.10
2019-05-01T10:01:32.887Z,31.23
2019-05-01T10:04:01.559Z,20.53
2019-05-01T10:06:30.511Z,19.27
2019-05-01T10:08:59.526Z,20.23
2019-05-01T10:11:28.528Z,16.17
2019-05-01T10:13:58.507Z,17.07
2019-05-01T10:16:28.256Z,20.70
2019-05-01T10:18:57.083Z,15.97
2019-05-01T10:21:27.275Z,16.53
2019-05-01T10:23:56.811Z,13.33
2019-05-01T10:26:27.344Z,16.50
2019-05-01T10:29:13.881Z,14.67
2019-05-01T10:32:16.997Z,16.37
2019-05-01T10:34:52.229Z,17.13
2019-05-01T10:37:23.569Z,17.37
2019-05-01T10:39:54.005Z,16.00
2019-05-01T10:42:22.403Z,15.80
2019-05-01T10:44:51.403Z,12.30
2019-05-01T10:47:20.420Z,12.13
2019-05-01T10:49:49.249Z,16.13
2019-05-01T10:52:18.233Z,11.33
2019-05-01T10:54:47.206Z,11.00
2019-05-01T10:57:16.156Z,11.27
2019-05-01T10:59:45.047Z,12.77
2019-05-01T11:02:15.701Z,11.43
2019-05-01T11:04:44.779Z,12.13
2019-05-01T11:07:13.566Z,12.10
2019-05-01T11:09:42.898Z,11.50
2019-05-01T11:12:11.947Z,10.70
2019-05-01T11:14:40.978Z,11.93
2019-05-01T11:17:09.837Z,8.77
2019-05-01T11:19:38.797Z,10.03
2019-05-01T11:22:07.667Z,11.87
2019-05-01T11:24:36.596Z,11.93
2019-05-01T11:27:05.598Z,12.50
2019-05-01T11:29:34.417Z,8.93
2019-05-01T11:32:20.251Z,14.90
2019-05-01T11:34:56.152Z,11.90
2019-05-01T11:37:59.436Z,11.17
2019-05-01T11:40:32.278Z,11.77
2019-05-01T11:43:02.802Z,11.43
2019-05-01T11:45:31.706Z,9.47
2019-05-01T11:48:00.650Z,13.50
2019-05-01T11:50:29.762Z,18.10
2019-05-01T11:52:58.699Z,11.00
2019-05-01T11:55:27.535Z,12.83
2019-05-01T11:57:56.427Z,15.83
2019-05-01T12:00:25.956Z,14.93
2019-05-01T12:02:54.802Z,15.50
2019-05-01T12:05:23.760Z,15.10
2019-05-01T12:07:52.604Z,11.43
2019-05-01T12:10:21.754Z,13.30
2019-05-01T12:12:50.837Z,13.80
2019-05-01T12:15:20.517Z,15.10
2019-05-01T12:17:50.180Z,11.70
2019-05-01T12:20:21.337Z,12.67
2019-05-01T12:22:51.532Z,18.77
2019-05-01T12:25:21.130Z,12.10
2019-05-01T12:27:50.081Z,14.90
2019-05-01T12:30:19.653Z,14.07
2019-05-01T12:32:49.106Z,16.80
2019-05-01T12:35:18.108Z,13.00
2019-05-01T12:37:47.034Z,10.47
2019-05-01T12:40:18.418Z,10.20
2019-05-01T12:42:47.540Z,12.70
2019-05-01T12:45:17.517Z,17.00
2019-05-01T12:47:49.792Z,9.37
2019-05-01T12:50:19.411Z,10.47
2019-05-01T12:53:02.691Z,8.60
2019-05-01T12:55:45.680Z,16.83
2019-05-01T12:58:14.596Z,10.63
2019-05-01T13:00:46.727Z,13.23
2019-05-01T13:03:15.744Z,8.87
2019-05-01T13:05:45.361Z,9.67
2019-05-01T13:08:14.350Z,10.77
2019-05-01T13:10:43.411Z,9.30
2019-05-01T13:13:12.356Z,9.50
2019-05-01T13:15:41.384Z,12.77
2019-05-01T13:18:10.396Z,11.83
2019-05-01T13:20:39.362Z,8.30
2019-05-01T13:23:09.104Z,7.95
2019-05-01T13:25:38.092Z,13.13
2019-05-01T13:28:24.894Z,11.27
2019-05-01T13:31:12.099Z,8.97
2019-05-01T13:33:41.171Z,7.13
2019-05-01T13:36:10.395Z,9.17
2019-05-01T13:38:39.309Z,10.13
2019-05-01T13:41:08.175Z,8.63
2019-05-01T13:43:37.617Z,6.77
2019-05-01T13:46:06.623Z,8.63
2019-05-01T13:48:35.622Z,10.70
2019-05-01T13:51:04.572Z,10.33
2019-05-01T13:53:33.555Z,12.00
2019-05-01T13:56:02.598Z,8.87
2019-05-01T13:58:31.710Z,11.00
2019-05-01T14:01:00.762Z,9.53
2019-05-01T14:03:29.800Z,8.07
2019-05-01T14:05:58.699Z,7.50
2019-05-01T14:08:27.722Z,7.72
2019-05-01T14:10:56.819Z,13.95
2019-05-01T14:13:25.755Z,13.00
2019-05-01T14:15:54.782Z,10.55
2019-05-01T14:18:23.877Z,13.30
2019-05-01T14:21:17.553Z,9.33
2019-05-01T14:24:04.616Z,12.80
2019-05-01T14:26:33.985Z,16.07
2019-05-01T14:29:02.999Z,7.43
2019-05-01T14:31:31.924Z,10.43
2019-05-01T14:34:00.857Z,12.43
2019-05-01T14:36:29.755Z,11.03
2019-05-01T14:38:58.821Z,7.87
2019-05-01T14:41:27.710Z,7.30
2019-05-01T14:43:56.872Z,10.00
2019-05-01T14:46:25.802Z,8.27
2019-05-01T14:48:54.712Z,9.75
2019-05-01T14:51:23.637Z,12.75
2019-05-01T14:53:52.629Z,10.65
2019-05-01T14:56:21.525Z,10.00
2019-05-01T14:58:50.464Z,8.53
2019-05-01T15:01:19.385Z,13.70
2019-05-01T15:03:48.480Z,10.37
2019-05-01T15:06:17.370Z,8.73
2019-05-01T15:08:46.454Z,7.67
2019-05-01T15:11:15.304Z,7.40
2019-05-01T15:13:50.626Z,6.50
2019-05-01T15:16:27.214Z,7.53
2019-05-01T15:19:04.598Z,12.27
2019-05-01T15:21:34.090Z,10.94
2019-05-01T15:24:02.884Z,7.70
2019-05-01T15:26:31.829Z,12.23
2019-05-01T15:29:00.770Z,6.80
2019-05-01T15:31:29.911Z,9.60
2019-05-01T15:33:58.751Z,9.70
2019-05-01T15:36:27.694Z,7.07
2019-05-01T15:38:57.213Z,8.27
2019-05-01T15:41:39.217Z,7.27
2019-05-01T15:44:19.396Z,6.93
2019-05-01T15:46:48.283Z,6.60
2019-05-01T15:49:19.244Z,7.77
2019-05-01T15:51:48.211Z,9.07
2019-05-01T15:54:17.193Z,6.08
2019-05-01T15:56:46.075Z,12.28
2019-05-01T15:59:15.041Z,7.65
2019-05-01T16:01:44.003Z,9.13
2019-05-01T16:04:12.983Z,7.70
2019-05-01T16:06:41.878Z,11.45
2019-05-01T16:09:11.155Z,7.55
2019-05-01T16:12:02.017Z,6.50
2019-05-01T16:14:31.028Z,12.23
2019-05-01T16:17:00.027Z,12.37
2019-05-01T16:19:29.046Z,7.00
2019-05-01T16:21:58.340Z,7.37
2019-05-01T16:24:27.199Z,10.58
2019-05-01T16:26:56.018Z,9.90
2019-05-01T16:29:24.816Z,11.65
2019-05-01T16:31:53.775Z,14.20
2019-05-01T16:34:22.580Z,10.40
2019-05-01T16:36:51.556Z,7.00
2019-05-01T16:39:51.925Z,6.77
2019-05-01T16:42:24.650Z,7.40
2019-05-01T16:44:53.449Z,7.22
2019-05-01T16:47:22.375Z,13.93
2019-05-01T16:49:51.300Z,10.83
2019-05-01T16:52:22.777Z,7.47
2019-05-01T16:54:59.141Z,7.72
2019-05-01T16:57:22.572Z,8.25
2019-05-01T16:59:51.473Z,9.23
2019-05-01T17:02:33.731Z,8.15
2019-05-01T17:05:15.159Z,11.30
2019-05-01T17:07:52.620Z,8.75
2019-05-01T17:10:26.622Z,9.15
2019-05-01T17:12:55.858Z,6.47
2019-05-01T17:15:41.766Z,6.57
2019-05-01T17:18:11.000Z,7.60
2019-05-01T17:20:40.011Z,10.60
2019-05-01T17:23:08.893Z,10.47
2019-05-01T17:25:37.919Z,7.83
2019-05-01T17:28:08.363Z,18.17
2019-05-01T17:30:40.070Z,13.07
2019-05-01T17:33:10.550Z,31.37
2019-05-01T17:35:41.824Z,23.57
2019-05-01T17:38:10.370Z,7.17
2019-05-01T17:40:39.288Z,7.13
2019-05-01T17:43:13.490Z,8.63
2019-05-01T17:45:38.855Z,13.17
2019-05-01T17:48:07.952Z,6.93
2019-05-01T17:50:36.806Z,9.13
2019-05-01T17:53:06.181Z,7.40
2019-05-01T17:55:35.167Z,8.63
2019-05-01T17:58:04.076Z,8.43
2019-05-01T18:01:01.231Z,8.50
2019-05-01T18:03:49.478Z,10.23
2019-05-01T18:06:25.653Z,6.13
2019-05-01T18:09:02.968Z,7.13
2019-05-01T18:11:25.102Z,14.37
2019-05-01T18:13:54.024Z,10.53
2019-05-01T18:16:23.033Z,5.37
2019-05-01T18:18:51.893Z,10.97
2019-05-01T18:21:20.945Z,6.47
2019-05-01T18:24:18.911Z,6.77
2019-05-01T18:26:53.100Z,7.17
2019-05-01T18:29:44.641Z,13.20
2019-05-01T18:32:18.981Z,20.80
2019-05-01T18:34:47.948Z,7.30
2019-05-01T18:37:22.502Z,7.17
2019-05-01T18:39:51.617Z,7.30
2019-05-01T18:42:20.589Z,9.53
2019-05-01T18:44:49.675Z,9.13
2019-05-01T18:47:18.855Z,10.37
2019-05-01T18:49:47.823Z,9.73
2019-05-01T18:52:16.668Z,9.90
2019-05-01T18:54:45.579Z,9.83
2019-05-01T18:57:14.673Z,7.53
2019-05-01T18:59:43.571Z,8.03
2019-05-01T19:02:12.563Z,16.67
2019-05-01T19:04:41.591Z,7.03
2019-05-01T19:07:10.411Z,7.50
2019-05-01T19:09:39.476Z,14.47
2019-05-01T19:12:09.943Z,12.87
2019-05-01T19:14:38.961Z,13.77
2019-05-01T19:17:07.782Z,15.33
2019-05-01T19:19:36.866Z,9.33
2019-05-01T19:22:06.160Z,10.43
2019-05-01T19:24:38.053Z,16.27
2019-05-01T19:27:05.789Z,10.50
2019-05-01T19:29:34.766Z,10.40
2019-05-01T19:32:03.937Z,10.00
2019-05-01T19:34:32.787Z,11.57
2019-05-01T19:37:01.816Z,10.10
2019-05-01T19:39:42.994Z,15.50
2019-05-01T19:42:01.502Z,12.60
2019-05-01T19:44:30.560Z,16.20
2019-05-01T19:46:59.576Z,14.00
2019-05-01T19:49:29.678Z,12.77
2019-05-01T19:52:00.714Z,15.33
2019-05-01T19:54:30.092Z,12.97
2019-05-01T19:56:59.127Z,14.40
2019-05-01T19:59:28.031Z,10.93
2019-05-01T20:01:57.100Z,13.50
2019-05-01T20:04:25.972Z,12.40
2019-05-01T20:06:54.965Z,16.07
2019-05-01T20:09:24.214Z,13.40
2019-05-01T20:11:53.513Z,11.17
2019-05-01T20:14:22.399Z,11.87
2019-05-01T20:16:51.475Z,15.63
2019-05-01T20:19:20.395Z,15.67
2019-05-01T20:21:49.434Z,14.07
2019-05-01T20:24:19.285Z,14.43
2019-05-01T20:26:48.360Z,15.47
2019-05-01T20:29:17.866Z,22.03
2019-05-01T20:31:50.626Z,24.30
2019-05-01T20:34:18.767Z,25.07
2019-05-01T20:36:47.838Z,32.23
2019-05-01T20:39:16.825Z,33.00
2019-05-01T20:41:45.784Z,41.30
2019-05-01T20:44:23.443Z,43.03
2019-05-01T20:46:45.290Z,40.17
2019-05-01T20:49:14.269Z,37.77
2019-05-01T20:51:43.135Z,35.07
2019-05-01T20:54:12.009Z,43.57
2019-05-01T20:57:03.557Z,45.77
2019-05-01T20:59:35.269Z,43.93
2019-05-01T21:02:07.657Z,49.20
2019-05-01T21:04:44.191Z,49.63
2019-05-01T21:07:32.198Z,44.80
2019-05-01T21:10:02.267Z,52.80
2019-05-01T21:12:31.196Z,43.33
2019-05-01T21:15:00.036Z,48.08
2019-05-01T21:17:28.923Z,49.20
2019-05-01T21:19:57.979Z,45.10
2019-05-01T21:22:27.060Z,44.93
2019-05-01T21:24:55.994Z,45.17
2019-05-01T21:27:25.032Z,49.00
2019-05-01T21:29:54.008Z,46.80
2019-05-01T21:32:27.107Z,41.70
2019-05-01T21:34:53.755Z,53.37
2019-05-01T21:37:22.651Z,50.77
2019-05-01T21:39:53.663Z,44.13
2019-05-01T21:42:24.403Z,43.83
2019-05-01T21:44:53.258Z,47.93
2019-05-01T21:47:23.687Z,45.20
2019-05-01T21:49:53.048Z,43.83
2019-05-01T21:52:26.310Z,38.57
2019-05-01T21:54:55.449Z,44.53
2019-05-01T21:57:24.511Z,42.70
2019-05-01T21:59:55.339Z,44.30
2019-05-01T22:02:24.482Z,49.20
2019-05-01T22:04:53.402Z,42.53
2019-05-01T22:07:23.777Z,39.43
2019-05-01T22:09:53.101Z,46.27
2019-05-01T22:12:22.368Z,47.67
2019-05-01T22:14:55.761Z,45.63
2019-05-01T22:17:52.120Z,48.37
2019-05-01T22:20:27.969Z,49.93
2019-05-01T22:23:04.028Z,49.53
2019-05-01T22:25:43.250Z,54.23
2019-05-01T22:28:19.047Z,49.13
2019-05-01T22:30:56.163Z,53.90
2019-05-01T22:33:45.958Z,47.67
2019-05-01T22:36:15.103Z,51.93
2019-05-01T22:38:46.574Z,56.90
2019-05-01T22:41:14.629Z,53.67
2019-05-01T22:43:43.642Z,53.37
2019-05-01T22:46:19.467Z,58.10
2019-05-01T22:48:48.450Z,54.07
2019-05-01T22:51:21.192Z,68.07
2019-05-01T22:53:54.551Z,58.43
2019-05-01T22:56:24.872Z,57.90
2019-05-01T22:58:54.001Z,63.73
2019-05-01T23:01:28.495Z,61.70
2019-05-01T23:03:59.816Z,53.70
2019-05-01T23:06:28.996Z,62.87
2019-05-01T23:08:58.035Z,57.07
2019-05-01T23:11:29.063Z,56.27
2019-05-01T23:13:58.071Z,57.60
2019-05-01T23:16:30.886Z,59.10
2019-05-01T23:18:59.789Z,59.83
2019-05-01T23:21:28.774Z,59.73
2019-05-01T23:24:01.840Z,64.83
2019-05-01T23:26:28.718Z,53.40
2019-05-01T23:28:57.603Z,57.50
2019-05-01T23:31:27.049Z,57.17
2019-05-01T23:33:56.040Z,60.60
2019-05-01T23:36:24.914Z,59.23
2019-05-01T23:38:53.935Z,55.70
2019-05-01T23:41:43.791Z,63.43
2019-05-01T23:43:53.642Z,60.83
2019-05-01T23:46:22.537Z,65.30
2019-05-01T23:48:51.536Z,63.70
2019-05-01T23:51:23.682Z,67.13
2019-05-01T23:53:51.129Z,66.53
2019-05-01T23:56:20.117Z,80.20
2019-05-01T23:58:49.110Z,74.77
